Time;durP1;ratioP1;P1;durP2;ratioP2;P2;SDS_P1;SDS_P2;PMS_P1;PMS_P2;Temp;Humidity;BMP_temperature;BMP_pressure;BME280_temperature;BME280_humidity;BME280_pressure;Samples;Min_cycle;Max_cycle;Signal;HPM_P1;HPM_P2
2022/01/24 00:00:05;;;;;;;22.50;16.13;;;;;;;-0.42;100.00;97911.94;5032503;27;102966;-58
2022/01/24 00:02:38;;;;;;;17.40;15.10;;;;;;;-0.40;100.00;97902.13;5019509;28;102382;-58
2022/01/24 00:05:05;;;;;;;20.87;15.43;;;;;;;-0.35;100.00;97902.53;5031043;28;105396;-58
2022/01/24 00:07:32;;;;;;;20.00;16.83;;;;;;;-0.38;100.00;97902.84;5030311;28;104964;-59
2022/01/24 00:10:04;;;;;;;19.13;15.13;;;;;;;-0.34;100.00;97905.97;5030398;28;101758;-58
2022/01/24 00:12:39;;;;;;;18.43;15.43;;;;;;;-0.50;100.00;97897.94;5047864;27;105052;-58
2022/01/24 00:15:16;;;;;;;18.67;14.87;;;;;;;-0.72;100.00;97901.72;5013585;28;102814;-59
2022/01/24 00:18:08;;;;;;;17.37;14.70;;;;;;;-0.64;100.00;97899.25;5030737;28;101773;-58
2022/01/24 00:32:24;;;;;;;21.77;16.47;;;;;;;-0.79;100.00;97897.22;5030147;28;103344;-58
2022/01/24 00:34:53;;;;;;;24.70;17.03;;;;;;;-0.87;100.00;97900.59;5030460;28;105300;-58
2022/01/24 00:37:50;;;;;;;28.37;17.43;;;;;;;-0.89;100.00;97899.88;5028977;27;105313;-59
2022/01/24 00:40:17;;;;;;;26.77;18.10;;;;;;;-0.89;100.00;97897.28;5030158;28;101956;-58
2022/01/24 00:43:02;;;;;;;31.37;18.10;;;;;;;-0.91;100.00;97904.44;5030267;28;105152;-56
2022/01/24 00:45:35;;;;;;;24.93;17.67;;;;;;;-0.83;100.00;97906.34;5029631;28;105387;-58
2022/01/24 00:48:38;;;;;;;26.63;17.87;;;;;;;-0.69;100.00;97901.47;5030227;28;101835;-57
2022/01/24 00:54:01;;;;;;;53.13;17.97;;;;;;;-0.85;100.00;97903.84;5029863;28;101973;-57
2022/01/24 00:56:28;;;;;;;38.73;17.80;;;;;;;-0.91;100.00;97909.66;5030328;28;105535;-58
2022/01/24 00:59:00;;;;;;;52.87;19.87;;;;;;;-0.93;100.00;97906.34;5029167;28;105017;-58
2022/01/24 01:01:27;;;;;;;36.97;19.23;;;;;;;-0.97;100.00;97910.22;5030335;28;101750;-57
2022/01/24 01:03:54;;;;;;;27.97;19.17;;;;;;;-0.94;100.00;97894.25;5029779;28;104928;-58
2022/01/24 01:06:23;;;;;;;26.33;19.37;;;;;;;-0.98;100.00;97905.97;5063373;27;105749;-58
2022/01/24 01:18:14;;;;;;;26.53;19.07;;;;;;;-1.15;100.00;97901.47;5012341;28;104875;-57
2022/01/24 01:20:56;;;;;;;28.87;18.47;;;;;;;-1.03;100.00;97896.91;5030800;28;102581;-58
2022/01/24 01:23:25;;;;;;;25.97;18.50;;;;;;;-0.89;100.00;97897.28;5029449;28;101891;-58
2022/01/24 01:25:53;;;;;;;26.90;19.77;;;;;;;-0.92;100.00;97902.78;5031106;28;102512;-58
2022/01/24 01:28:23;;;;;;;26.67;19.17;;;;;;;-0.91;100.00;97904.44;5028948;28;105959;-57
2022/01/24 01:30:54;;;;;;;28.07;19.87;;;;;;;-0.82;100.00;97898.34;5029534;28;101854;-58
2022/01/24 01:33:31;;;;;;;26.07;18.77;;;;;;;-0.83;100.00;97890.66;5029606;28;105976;-58
2022/01/24 01:36:07;;;;;;;27.77;19.50;;;;;;;-0.86;100.00;97893.56;5028822;28;104652;-58
2022/01/24 01:53:01;;;;;;;46.20;18.73;;;;;;;-1.08;100.00;97875.63;4974065;28;101868;-58
2022/01/24 01:55:38;;;;;;;52.83;18.20;;;;;;;-1.07;100.00;97872.88;5025874;28;105059;-58
2022/01/24 01:58:06;;;;;;;38.57;17.70;;;;;;;-1.10;100.00;97872.34;5028485;28;105347;-57
2022/01/24 02:00:34;;;;;;;39.10;19.67;;;;;;;-1.09;100.00;97866.97;5032517;28;101790;-58
2022/01/24 02:03:08;;;;;;;64.20;19.70;;;;;;;-1.08;100.00;97867.78;5028458;28;104077;-58
2022/01/24 02:05:37;;;;;;;71.47;20.87;;;;;;;-1.13;100.00;97865.63;5029119;28;102008;-58
2022/01/24 02:08:06;;;;;;;50.00;20.33;;;;;;;-1.16;100.00;97868.50;5030270;27;102253;-56
2022/01/24 02:10:37;;;;;;;39.73;20.63;;;;;;;-1.12;100.00;97859.44;5029797;28;102501;-58
2022/01/24 02:13:05;;;;;;;106.10;22.23;;;;;;;-1.03;100.00;97862.97;5030295;27;102485;-57
2022/01/24 02:15:41;;;;;;;43.23;21.13;;;;;;;-1.09;100.00;97853.09;5029110;28;104964;-58
2022/01/24 02:18:23;;;;;;;29.43;20.67;;;;;;;-1.04;100.00;97853.50;5028010;28;105854;-56
2022/01/24 02:21:10;;;;;;;28.20;19.83;;;;;;;-0.92;100.00;97840.13;5030516;28;101780;-58
2022/01/24 02:23:43;;;;;;;25.50;18.43;;;;;;;-0.88;100.00;97838.84;5031584;28;105258;-58
2022/01/24 02:26:15;;;;;;;35.83;19.07;;;;;;;-0.90;100.00;97840.81;5028797;28;101865;-58
2022/01/24 02:28:57;;;;;;;100.90;22.87;;;;;;;-0.99;100.00;97828.59;5028363;28;105475;-58
2022/01/24 02:34:22;;;;;;;28.37;19.83;;;;;;;-0.95;100.00;97837.78;5009830;28;102005;-58
2022/01/24 02:36:50;;;;;;;44.77;20.53;;;;;;;-1.01;100.00;97829.69;5028522;28;105564;-58
2022/01/24 02:39:46;;;;;;;107.73;23.63;;;;;;;-1.02;100.00;97822.84;5027685;28;106769;-58
2022/01/24 02:50:49;;;;;;;30.87;19.83;;;;;;;-1.34;100.00;97807.59;5028373;28;105456;-58
2022/01/24 02:53:16;;;;;;;38.20;19.77;;;;;;;-1.37;100.00;97801.84;5027763;28;105327;-59
2022/01/24 02:55:45;;;;;;;31.63;19.17;;;;;;;-1.45;100.00;97794.72;5028231;28;102497;-57
2022/01/24 02:58:29;;;;;;;25.13;18.53;;;;;;;-1.40;100.00;97797.72;5027979;28;105091;-57
2022/01/24 03:00:57;;;;;;;76.87;20.97;;;;;;;-1.33;100.00;97788.34;5027532;27;105513;-58
2022/01/24 03:03:25;;;;;;;37.30;19.10;;;;;;;-1.34;100.00;97786.72;5027951;28;102386;-58
2022/01/24 03:05:52;;;;;;;80.17;18.73;;;;;;;-1.22;100.00;97790.78;5027809;28;105570;-57
2022/01/24 03:08:28;;;;;;;106.83;19.73;;;;;;;-1.55;100.00;97793.91;5028567;28;102851;-58
2022/01/24 03:10:59;;;;;;;64.97;18.80;;;;;;;-1.61;100.00;97793.66;5031161;28;101732;-57
2022/01/24 03:13:36;;;;;;;238.97;24.63;;;;;;;-1.61;100.00;97797.09;5028588;27;102645;-58
2022/01/24 03:16:05;;;;;;;29.80;16.77;;;;;;;-1.64;100.00;97799.97;5027750;28;102070;-57
2022/01/24 03:18:34;;;;;;;114.97;19.70;;;;;;;-1.92;100.00;97795.63;5027541;28;104783;-58
2022/01/24 03:21:02;;;;;;;22.77;18.23;;;;;;;-1.92;100.00;97798.22;5027750;28;105372;-58
2022/01/24 03:23:29;;;;;;;23.13;16.83;;;;;;;-1.85;100.00;97796.75;5027776;28;102004;-57
2022/01/24 03:25:59;;;;;;;25.00;18.10;;;;;;;-1.73;100.00;97795.63;5027757;28;105121;-58
2022/01/24 03:28:36;;;;;;;47.73;19.27;;;;;;;-1.67;100.00;97797.66;5028682;28;101958;-58
2022/01/24 03:31:04;;;;;;;24.33;17.70;;;;;;;-1.76;100.00;97790.66;5029229;27;101835;-58
2022/01/24 03:33:30;;;;;;;49.80;20.37;;;;;;;-1.62;100.00;97792.00;5030739;28;105146;-58
2022/01/24 03:35:57;;;;;;;33.20;18.93;;;;;;;-1.72;100.00;97792.03;5027452;28;102152;-57
2022/01/24 03:38:38;;;;;;;30.83;19.03;;;;;;;-1.71;100.00;97791.06;5027565;28;104852;-58
2022/01/24 03:41:28;;;;;;;100.83;20.67;;;;;;;-1.82;100.00;97790.41;5027296;28;105653;-58
2022/01/24 03:44:01;;;;;;;23.37;17.70;;;;;;;-1.77;100.00;97785.59;5027450;28;103280;-58
2022/01/24 03:46:30;;;;;;;120.57;22.50;;;;;;;-1.75;100.00;97779.28;5027467;28;105849;-58
2022/01/24 03:49:20;;;;;;;25.93;17.70;;;;;;;-1.77;100.00;97776.00;5026940;28;105258;-58
2022/01/24 03:51:47;;;;;;;34.67;18.47;;;;;;;-1.58;100.00;97778.53;5027487;28;101916;-58
2022/01/24 03:54:14;;;;;;;32.33;18.80;;;;;;;-1.45;100.00;97767.78;5061743;27;105325;-58
2022/01/24 03:56:43;;;;;;;27.67;18.57;;;;;;;-1.40;100.00;97779.47;5030087;27;101873;-58
2022/01/24 03:59:32;;;;;;;31.20;20.10;;;;;;;-1.44;100.00;97782.47;5027017;28;105137;-58
2022/01/24 04:02:00;;;;;;;45.00;17.67;;;;;;;-1.63;100.00;97782.53;5026576;28;104276;-58
2022/01/24 04:04:27;;;;;;;41.20;18.53;;;;;;;-1.71;100.00;97775.41;5028948;27;101677;-57
2022/01/24 04:06:54;;;;;;;20.60;16.03;;;;;;;-1.74;100.00;97774.88;5027320;28;105334;-58
2022/01/24 04:09:29;;;;;;;19.37;15.63;;;;;;;-1.77;100.00;97765.56;5026804;28;105635;-58
2022/01/24 04:12:01;;;;;;;19.77;15.43;;;;;;;-1.53;100.00;97760.69;5026864;27;101861;-58
2022/01/24 04:14:36;;;;;;;22.23;17.03;;;;;;;-1.39;100.00;97762.00;5032081;28;102905;-58
2022/01/24 04:17:23;;;;;;;57.83;18.40;;;;;;;-1.54;100.00;97772.09;5033386;28;105019;-58
2022/01/24 04:22:45;;;;;;;132.17;21.37;;;;;;;-1.84;100.00;97767.09;5043821;27;105682;-59
2022/01/24 04:25:15;;;;;;;27.10;16.57;;;;;;;-1.93;100.00;97762.72;5015612;28;101800;-58
2022/01/24 04:27:53;;;;;;;45.97;16.83;;;;;;;-1.83;100.00;97763.53;5059150;27;105362;-57
2022/01/24 04:30:20;;;;;;;52.63;17.40;;;;;;;-1.88;100.00;97755.28;5015500;28;102845;-58
2022/01/24 04:32:47;;;;;;;145.47;20.70;;;;;;;-2.06;100.00;97750.94;5030498;28;101935;-58
2022/01/24 04:35:15;;;;;;;128.23;19.13;;;;;;;-2.19;100.00;97755.63;5031705;28;102900;-58
2022/01/24 04:37:59;;;;;;;111.20;20.30;;;;;;;-2.09;100.00;97765.06;5029795;28;105619;-58
2022/01/24 04:40:26;;;;;;;113.53;18.27;;;;;;;-2.13;100.00;97760.28;5033884;28;101796;-58
2022/01/24 04:43:30;;;;;;;48.37;17.67;;;;;;;-2.22;100.00;97761.09;5029524;28;105672;-58
2022/01/24 04:46:09;;;;;;;33.83;17.80;;;;;;;-2.14;100.00;97759.44;5030131;28;102101;-57
2022/01/24 04:51:39;;;;;;;22.23;16.10;;;;;;;-2.00;100.00;97758.19;5044576;27;105305;-58
2022/01/24 04:54:38;;;;;;;50.17;16.73;;;;;;;-2.09;100.00;97759.03;5010387;28;101790;-58
2022/01/24 04:57:05;;;;;;;49.17;15.93;;;;;;;-2.09;100.00;97759.03;5025613;28;104162;-58
2022/01/24 04:59:33;;;;;;;23.33;15.60;;;;;;;-2.16;100.00;97758.78;5028758;28;105030;-59
2022/01/24 05:02:01;;;;;;;19.63;14.60;;;;;;;-2.14;100.00;97759.44;5030960;28;102945;-58
2022/01/24 05:04:28;;;;;;;17.23;13.33;;;;;;;-2.02;100.00;97768.75;5033105;28;103877;-58
2022/01/24 05:06:55;;;;;;;28.93;14.40;;;;;;;-2.10;100.00;97776.44;5029502;28;102052;-58
2022/01/24 05:09:28;;;;;;;17.57;14.10;;;;;;;-2.19;100.00;97774.66;5030062;28;105320;-57
2022/01/24 05:12:01;;;;;;;20.07;14.67;;;;;;;-2.11;100.00;97776.59;5028663;28;104992;-56
2022/01/24 05:25:46;;;;;;;20.30;13.87;;;;;;;-2.51;100.00;97792.34;5031076;27;102634;-58
2022/01/24 05:28:22;;;;;;;31.73;15.30;;;;;;;-2.52;100.00;97801.13;5032425;28;105746;-58
2022/01/24 05:30:50;;;;;;;44.50;16.23;;;;;;;-2.60;100.00;97807.97;5030860;28;102491;-58
2022/01/24 05:33:19;;;;;;;78.33;18.47;;;;;;;-2.62;100.00;97809.88;5030215;27;102887;-56
2022/01/24 05:35:46;;;;;;;25.00;17.27;;;;;;;-2.68;100.00;97816.44;5030457;28;101842;-58
2022/01/24 05:38:26;;;;;;;29.20;17.50;;;;;;;-2.62;100.00;97822.91;5030656;27;102329;-58
2022/01/24 05:41:04;;;;;;;30.90;19.77;;;;;;;-2.43;100.00;97834.16;5030360;28;102548;-58
2022/01/24 05:43:31;;;;;;;40.73;18.73;;;;;;;-2.54;100.00;97821.28;5030375;27;101745;-58
2022/01/24 05:45:58;;;;;;;50.93;20.43;;;;;;;-2.56;100.00;97836.22;5030576;28;104091;-58
2022/01/24 05:48:27;;;;;;;25.73;18.20;;;;;;;-2.48;100.00;97833.75;5030100;28;103096;-59
2022/01/24 05:50:54;;;;;;;43.90;18.90;;;;;;;-2.48;100.00;97832.91;5034329;28;101926;-58
2022/01/24 05:53:21;;;;;;;29.63;18.93;;;;;;;-2.43;100.00;97834.16;5030231;28;102557;-57
2022/01/24 05:55:48;;;;;;;25.50;18.33;;;;;;;-2.33;100.00;97831.56;5030708;28;101884;-58
2022/01/24 05:58:16;;;;;;;34.27;19.37;;;;;;;-2.34;100.00;97830.78;5029072;28;104929;-59
2022/01/24 06:00:43;;;;;;;26.23;18.57;;;;;;;-2.22;100.00;97824.47;5028642;28;102778;-59
2022/01/24 06:03:10;;;;;;;35.87;18.53;;;;;;;-2.24;100.00;97818.53;5028913;28;101900;-59
2022/01/24 06:05:39;;;;;;;41.33;18.37;;;;;;;-2.41;100.00;97819.22;5029107;28;105169;-58
2022/01/24 06:08:06;;;;;;;23.77;16.83;;;;;;;-2.31;100.00;97807.03;5028565;28;103801;-59
2022/01/24 06:10:36;;;;;;;26.43;17.53;;;;;;;-2.28;100.00;97809.38;5033850;27;101865;-58
2022/01/24 06:13:03;;;;;;;25.33;17.50;;;;;;;-2.12;100.00;97803.59;5029833;28;102890;-59
2022/01/24 06:15:30;;;;;;;24.77;17.50;;;;;;;-2.04;100.00;97804.56;5030228;27;103509;-60
2022/01/24 06:18:03;;;;;;;25.23;17.80;;;;;;;-2.08;100.00;97797.97;5029839;28;102501;-60
2022/01/24 06:20:29;;;;;;;50.17;19.37;;;;;;;-2.11;100.00;97790.44;5029566;28;102526;-56
2022/01/24 06:22:58;;;;;;;45.30;20.47;;;;;;;-2.13;100.00;97792.34;5030196;28;101826;-58
2022/01/24 06:25:25;;;;;;;54.07;20.90;;;;;;;-2.07;100.00;97799.63;5029782;28;102748;-58
2022/01/24 06:31:14;;;;;;;26.17;17.67;;;;;;;-2.27;100.00;97798.00;5028453;28;101855;-58
2022/01/24 06:33:41;;;;;;;120.57;20.33;;;;;;;-2.17;100.00;97804.03;5032806;27;102260;-58
2022/01/24 06:36:08;;;;;;;169.90;22.13;;;;;;;-2.13;100.00;97799.38;5027798;28;101925;-57
2022/01/24 06:38:42;;;;;;;25.70;17.47;;;;;;;-1.97;100.00;97802.25;5029750;28;102609;-57
2022/01/24 06:41:10;;;;;;;42.97;18.83;;;;;;;-2.03;100.00;97808.81;5027632;28;105140;-57
2022/01/24 06:43:37;;;;;;;24.07;16.97;;;;;;;-1.86;100.00;97809.91;5029985;28;101726;-58
2022/01/24 06:46:04;;;;;;;227.87;25.77;;;;;;;-2.18;100.00;97807.56;5030034;28;102408;-59
2022/01/24 06:48:47;;;;;;;67.47;19.23;;;;;;;-2.29;100.00;97818.13;5027793;28;105638;-57
2022/01/24 06:51:14;;;;;;;53.63;18.83;;;;;;;-2.45;100.00;97812.66;5030056;27;101681;-57
2022/01/24 06:53:43;;;;;;;23.43;16.53;;;;;;;-2.45;100.00;97812.66;5029576;28;102494;-58
2022/01/24 06:56:10;;;;;;;24.80;16.87;;;;;;;-2.50;100.00;97817.44;5030904;28;105207;-57
2022/01/24 06:58:51;;;;;;;34.27;16.03;;;;;;;-2.42;100.00;97825.41;5027989;28;103668;-58
2022/01/24 07:01:18;;;;;;;39.30;16.23;;;;;;;-2.51;100.00;97820.97;5027527;28;103807;-57
2022/01/24 07:03:45;;;;;;;26.77;16.33;;;;;;;-2.64;100.00;97823.03;5029198;28;103314;-59
2022/01/24 07:06:12;;;;;;;35.07;16.70;;;;;;;-2.60;100.00;97828.78;5028258;28;105138;-59
2022/01/24 07:09:12;;;;;;;77.43;23.90;;;;;;;-2.62;100.00;97828.13;5029006;27;102613;-57
2022/01/24 07:11:40;;;;;;;70.47;27.00;;;;;;;-2.68;100.00;97831.25;5027653;28;101914;-58
2022/01/24 07:14:11;;;;;;;205.93;39.27;;;;;;;-2.77;100.00;97827.66;5027998;28;105283;-55
2022/01/24 07:17:01;;;;;;;69.13;32.20;;;;;;;-2.64;100.00;97823.03;5027247;28;105712;-56
2022/01/24 07:20:08;;;;;;;51.30;27.70;;;;;;;-2.61;100.00;97821.94;5030868;28;102049;-58
2022/01/24 07:22:35;;;;;;;35.23;21.10;;;;;;;-2.59;100.00;97823.47;5027335;28;104820;-58
2022/01/24 07:25:05;;;;;;;28.80;20.20;;;;;;;-2.34;100.00;97828.16;5027702;28;101970;-59
2022/01/24 07:27:32;;;;;;;24.83;18.20;;;;;;;-2.32;100.00;97823.63;5027830;28;105098;-59
2022/01/24 07:30:01;;;;;;;24.77;17.10;;;;;;;-2.48;100.00;97823.34;5027138;28;105501;-58
2022/01/24 07:32:28;;;;;;;28.73;18.50;;;;;;;-2.38;100.00;97834.59;5027696;28;101998;-59
2022/01/24 07:34:55;;;;;;;25.40;18.40;;;;;;;-2.31;100.00;97825.28;5027440;28;103529;-60
2022/01/24 07:37:55;;;;;;;43.27;20.93;;;;;;;-2.18;100.00;97831.03;5027191;28;104363;-60
2022/01/24 07:40:24;;;;;;;27.70;17.90;;;;;;;-1.86;100.00;97831.56;5027598;28;102305;-60
2022/01/24 07:43:08;;;;;;;29.67;19.90;;;;;;;-1.88;100.00;97838.72;5030448;28;102559;-60
2022/01/24 07:45:35;;;;;;;27.77;19.10;;;;;;;-1.89;100.00;97836.25;5029250;28;101666;-60
2022/01/24 07:48:07;;;;;;;27.67;19.33;;;;;;;-2.07;100.00;97825.66;5030341;28;105019;-55
2022/01/24 07:50:37;;;;;;;29.33;17.57;;;;;;;-2.02;100.00;97822.69;5030944;28;105800;-55
2022/01/24 07:53:04;;;;;;;26.60;17.83;;;;;;;-2.13;100.00;97828.84;5031229;28;102127;-56
2022/01/24 07:55:33;;;;;;;25.90;17.70;;;;;;;-2.13;100.00;97822.81;5032398;28;102418;-60
2022/01/24 07:58:31;;;;;;;23.03;17.33;;;;;;;-2.05;100.00;97831.59;5030393;28;104053;-60
2022/01/24 08:00:58;;;;;;;26.97;19.03;;;;;;;-2.06;100.00;97835.16;5031180;28;101794;-60
2022/01/24 08:03:26;;;;;;;27.97;20.80;;;;;;;-1.97;100.00;97834.31;5030791;28;105211;-60
2022/01/24 08:05:53;;;;;;;28.87;19.47;;;;;;;-2.00;100.00;97829.41;5033965;28;105312;-60
2022/01/24 08:08:21;;;;;;;29.53;18.30;;;;;;;-2.04;100.00;97837.59;5030919;28;105526;-59
2022/01/24 08:10:50;;;;;;;29.60;19.23;;;;;;;-1.89;100.00;97842.28;5029988;28;105296;-59
2022/01/24 08:13:17;;;;;;;29.77;19.30;;;;;;;-1.86;100.00;97836.78;5030588;28;101992;-59
2022/01/24 08:15:44;;;;;;;39.50;16.23;;;;;;;-2.05;100.00;97831.59;5030552;28;105281;-59
2022/01/24 08:18:16;;;;;;;25.87;15.73;;;;;;;-2.16;100.00;97834.34;5030135;28;105130;-59
2022/01/24 08:20:42;;;;;;;19.83;15.37;;;;;;;-2.26;100.00;97833.50;5018184;28;101959;-60
2022/01/24 08:23:10;;;;;;;23.43;14.87;;;;;;;-2.29;100.00;97838.16;5030744;28;104157;-60
2022/01/24 08:25:37;;;;;;;25.50;17.87;;;;;;;-2.12;100.00;97843.53;5033443;28;105126;-62
2022/01/24 08:28:08;;;;;;;27.03;18.57;;;;;;;-1.86;100.00;97847.22;5030590;28;105286;-62
2022/01/24 08:30:36;;;;;;;26.33;18.67;;;;;;;-1.68;100.00;97840.34;5031381;28;104580;-62
2022/01/24 08:33:04;;;;;;;29.00;15.93;;;;;;;-1.97;100.00;97836.94;5030341;28;101875;-62
2022/01/24 08:35:34;;;;;;;29.70;16.43;;;;;;;-2.01;100.00;97843.41;5030364;28;103756;-61
2022/01/24 08:38:20;;;;;;;31.40;16.40;;;;;;;-1.85;100.00;97841.06;5029694;27;104875;-62
2022/01/24 08:40:50;;;;;;;25.30;15.90;;;;;;;-1.82;100.00;97840.75;5031490;28;101788;-62
2022/01/24 08:43:35;;;;;;;24.00;16.00;;;;;;;-1.77;100.00;97850.78;5030129;28;103845;-61
2022/01/24 08:46:02;;;;;;;22.27;16.67;;;;;;;-1.65;100.00;97860.91;5029845;28;105262;-61
2022/01/24 08:48:31;;;;;;;30.63;17.33;;;;;;;-1.76;100.00;97860.25;5035084;27;101887;-61
2022/01/24 08:51:00;;;;;;;46.67;18.13;;;;;;;-1.67;100.00;97868.06;5029719;28;105762;-64
2022/01/24 08:53:30;;;;;;;38.90;16.27;;;;;;;-1.53;100.00;97879.84;5030122;28;101874;-58
2022/01/24 08:55:58;;;;;;;29.43;19.23;;;;;;;-1.53;100.00;97878.06;5030406;28;104842;-58
2022/01/24 08:58:37;;;;;;;34.77;17.20;;;;;;;-1.39;100.00;97876.78;5029113;27;104106;-64
2022/01/24 09:01:04;;;;;;;24.83;15.83;;;;;;;-1.32;100.00;97876.09;5030000;28;101877;-58
2022/01/24 09:03:36;;;;;;;24.50;16.37;;;;;;;-1.21;100.00;97875.94;5029920;28;105298;-58
2022/01/24 09:06:03;;;;;;;23.23;17.10;;;;;;;-1.13;100.00;97872.63;5029502;28;105732;-59
2022/01/24 09:08:38;;;;;;;30.53;17.07;;;;;;;-0.95;100.00;97873.50;5030058;28;101862;-59
2022/01/24 09:11:13;;;;;;;29.57;16.33;;;;;;;-0.87;100.00;97871.84;5032426;28;105218;-60
2022/01/24 09:13:42;;;;;;;38.50;16.60;;;;;;;-0.88;100.00;97867.56;5029961;28;101812;-59
2022/01/24 09:16:09;;;;;;;33.60;17.10;;;;;;;-0.82;100.00;97882.66;5029947;28;105275;-58
2022/01/24 09:18:53;;;;;;;25.53;16.07;;;;;;;-0.67;100.00;97876.00;5028353;28;105333;-58
2022/01/24 09:21:20;;;;;;;48.53;14.67;;;;;;;-0.78;100.00;97878.81;5029844;28;101935;-58
2022/01/24 09:23:47;;;;;;;22.57;15.13;;;;;;;-0.75;100.00;97882.94;5029655;28;104794;-58
2022/01/24 09:26:15;;;;;;;32.00;15.37;;;;;;;-0.76;100.00;97876.91;5009041;28;105546;-57
2022/01/24 09:28:44;;;;;;;30.23;16.80;;;;;;;-0.62;100.00;97878.22;5024011;28;101865;-56
2022/01/24 09:31:11;;;;;;;22.77;17.27;;;;;;;-0.47;100.00;97882.78;5029715;28;105354;-58
2022/01/24 09:33:38;;;;;;;22.20;17.00;;;;;;;-0.41;100.00;97882.22;5032574;28;105546;-58
2022/01/24 09:36:06;;;;;;;21.83;17.07;;;;;;;-0.46;100.00;97881.81;5029238;28;104126;-57
2022/01/24 09:38:51;;;;;;;22.73;16.67;;;;;;;-0.43;100.00;97894.59;5024666;28;106018;-59
2022/01/24 09:41:21;;;;;;;27.30;16.70;;;;;;;-0.32;100.00;97889.19;5011078;28;101824;-56
2022/01/24 09:43:49;;;;;;;23.43;15.80;;;;;;;-0.38;100.00;97891.53;5029427;28;105651;-58
2022/01/24 09:46:17;;;;;;;22.00;16.33;;;;;;;-0.32;100.00;97898.81;5028840;28;105418;-59
2022/01/24 09:48:56;;;;;;;24.60;17.37;;;;;;;-0.16;100.00;97891.97;5029370;28;101944;-55
2022/01/24 09:51:23;;;;;;;19.07;15.63;;;;;;;-0.05;100.00;97891.75;5031028;28;102486;-56
2022/01/24 09:53:50;;;;;;;21.50;16.30;;;;;;;-0.01;100.00;97893.09;5028646;28;105308;-56
2022/01/24 09:56:17;;;;;;;21.43;15.93;;;;;;;-0.12;100.00;97886.28;5032621;28;101964;-58
2022/01/24 09:58:49;;;;;;;21.87;15.80;;;;;;;-0.01;100.00;97885.25;5029954;28;102790;-57
2022/01/24 10:01:18;;;;;;;19.57;15.27;;;;;;;0.08;100.00;97886.97;5028947;28;101952;-59
2022/01/24 10:04:15;;;;;;;18.93;15.43;;;;;;;0.04;100.00;97888.22;5030594;27;102901;-58
2022/01/24 10:07:04;;;;;;;23.07;16.80;;;;;;;0.38;100.00;97882.19;5030022;28;101699;-58
2022/01/24 10:09:41;;;;;;;20.07;15.53;;;;;;;0.43;100.00;97877.31;5028829;27;102015;-58
2022/01/24 10:12:18;;;;;;;19.23;15.47;;;;;;;0.54;100.00;97877.06;5029479;28;105740;-59
2022/01/24 10:17:41;;;;;;;20.43;15.47;;;;;;;0.55;100.00;97883.16;5002481;28;102311;-59
2022/01/24 10:20:20;;;;;;;21.43;15.90;;;;;;;0.50;100.00;97877.53;5020170;28;103390;-59
2022/01/24 10:23:05;;;;;;;19.53;14.60;;;;;;;0.59;100.00;97879.22;5030435;27;101732;-59
2022/01/24 10:25:45;;;;;;;19.03;15.07;;;;;;;0.60;100.00;97876.47;5030321;28;102607;-59
2022/01/24 10:28:52;;;;;;;18.73;15.87;;;;;;;0.77;100.00;97870.38;5008354;28;103739;-59
2022/01/24 10:31:24;;;;;;;19.03;15.67;;;;;;;0.51;100.00;97866.09;5029997;28;102278;-59
2022/01/24 10:34:03;;;;;;;17.57;15.37;;;;;;;0.51;100.00;97873.94;5028782;28;104120;-59
2022/01/24 10:36:41;;;;;;;18.27;14.43;;;;;;;0.53;100.00;97872.81;5007992;28;105885;-59
2022/01/24 10:39:27;;;;;;;18.60;15.00;;;;;;;0.52;100.00;97863.34;5009227;28;101780;-59
2022/01/24 10:42:42;;;;;;;19.03;15.20;;;;;;;0.62;100.00;97868.47;5024383;28;101712;-58
2022/01/24 10:45:15;;;;;;;18.50;14.47;;;;;;;0.52;100.00;97868.56;5028279;28;102067;-59
2022/01/24 10:47:48;;;;;;;19.70;14.83;;;;;;;0.56;100.00;97869.09;5027955;28;104873;-59
2022/01/24 10:50:22;;;;;;;18.03;14.27;;;;;;;0.52;100.00;97865.13;5027531;28;105433;-59
2022/01/24 10:52:49;;;;;;;19.93;14.77;;;;;;;0.45;100.00;97867.50;5027302;28;102058;-59
2022/01/24 10:55:18;;;;;;;17.97;14.80;;;;;;;0.63;100.00;97870.09;5028524;28;105644;-59
2022/01/24 10:57:58;;;;;;;24.13;16.57;;;;;;;0.40;100.00;97874.19;5027522;28;105068;-59
2022/01/24 11:00:27;;;;;;;19.30;15.00;;;;;;;0.56;100.00;97864.66;5027607;28;101922;-59
2022/01/24 11:02:59;;;;;;;20.40;16.47;;;;;;;0.94;100.00;97866.06;5028151;28;105201;-59
2022/01/24 11:05:28;;;;;;;19.00;14.90;;;;;;;0.81;100.00;97857.78;5031055;28;105166;-58
2022/01/24 11:08:05;;;;;;;17.10;13.87;;;;;;;0.60;100.00;97854.72;5027757;28;105713;-58
2022/01/24 11:10:36;;;;;;;22.37;14.57;;;;;;;0.65;100.00;97852.44;5026831;28;105378;-58
2022/01/24 11:13:04;;;;;;;19.67;15.47;;;;;;;0.82;100.00;97849.78;5029436;28;101723;-59
2022/01/24 11:16:01;;;;;;;20.70;14.93;;;;;;;1.30;100.00;97849.22;5027892;28;105067;-58
2022/01/24 11:18:39;;;;;;;18.93;15.80;;;;;;;1.73;100.00;97841.16;5026751;28;103669;-59
2022/01/24 11:21:13;;;;;;;18.70;15.17;;;;;;;2.17;100.00;97840.75;5029240;28;101877;-58
2022/01/24 11:23:40;;;;;;;20.50;15.50;;;;;;;2.48;100.00;97838.31;5029323;28;102899;-56
2022/01/24 11:26:08;;;;;;;21.07;16.17;;;;;;;2.55;100.00;97834.03;5027460;28;105161;-58
2022/01/24 11:28:53;;;;;;;17.30;14.40;;;;;;;1.88;100.00;97829.91;5030206;28;101874;-60
2022/01/24 11:31:24;;;;;;;19.10;14.60;;;;;;;1.47;100.00;97828.16;5028491;28;103179;-60
2022/01/24 11:34:01;;;;;;;16.23;13.47;;;;;;;1.24;100.00;97836.75;5027558;28;101813;-60
2022/01/24 11:36:37;;;;;;;16.73;13.77;;;;;;;1.39;100.00;97837.78;5027521;28;103746;-58
2022/01/24 11:39:22;;;;;;;16.70;14.20;;;;;;;1.65;100.00;97834.09;5028666;28;103011;-60
2022/01/24 11:41:54;;;;;;;19.67;14.50;;;;;;;1.90;100.00;97834.97;5027351;28;101860;-60
2022/01/24 11:44:22;;;;;;;17.73;13.90;;;;;;;1.94;100.00;97833.69;5027501;28;105119;-59
2022/01/24 11:46:52;;;;;;;16.63;13.77;;;;;;;1.62;100.00;97817.88;5026305;28;105033;-57
2022/01/24 11:49:33;;;;;;;15.70;13.70;;;;;;;1.91;100.00;97828.78;5027247;28;101880;-60
2022/01/24 11:52:06;;;;;;;16.73;13.40;;;;;;;1.77;100.00;97821.53;5030345;28;105524;-59
2022/01/24 11:54:49;;;;;;;15.87;13.70;;;;;;;2.05;100.00;97822.88;5027262;28;103409;-58
2022/01/24 11:57:26;;;;;;;17.60;14.07;;;;;;;1.70;100.00;97821.34;5029018;27;102552;-57
2022/01/24 12:00:13;;;;;;;18.27;14.83;;;;;;;1.69;100.00;97821.50;5060403;27;104220;-60
2022/01/24 12:02:43;;;;;;;16.80;14.37;;;;;;;1.84;100.00;97812.84;5027120;28;101793;-59
2022/01/24 12:05:13;;;;;;;18.23;15.00;;;;;;;2.06;100.00;97817.47;5027033;28;105414;-59
2022/01/24 12:07:46;;;;;;;18.13;14.33;;;;;;;1.99;100.00;97800.75;5026791;28;105808;-58
2022/01/24 12:10:38;;;;;;;20.43;15.57;;;;;;;2.09;100.00;97806.63;5027522;28;101784;-59
2022/01/24 12:13:27;;;;;;;18.00;14.87;;;;;;;2.25;100.00;97805.84;5027316;28;103527;-59
2022/01/24 12:16:03;;;;;;;19.67;15.23;;;;;;;2.04;100.00;97813.38;5031605;27;102549;-59
2022/01/24 12:18:50;;;;;;;19.00;14.47;;;;;;;2.10;100.00;97810.09;5027359;28;104900;-60
2022/01/24 12:21:26;;;;;;;18.10;15.37;;;;;;;2.03;100.00;97809.09;5016213;28;104138;-60
2022/01/24 12:23:55;;;;;;;18.53;15.37;;;;;;;2.36;100.00;97808.94;5026848;28;101803;-60
2022/01/24 12:26:25;;;;;;;16.77;13.70;;;;;;;2.63;100.00;97805.16;5026959;28;105597;-60
2022/01/24 12:29:04;;;;;;;16.87;13.70;;;;;;;2.51;100.00;97799.41;5027651;28;102784;-59
2022/01/24 12:31:44;;;;;;;16.10;13.53;;;;;;;2.30;100.00;97793.84;5026706;28;101882;-60
2022/01/24 12:34:17;;;;;;;17.83;14.37;;;;;;;2.14;100.00;97795.66;5023511;27;105599;-60
2022/01/24 12:37:07;;;;;;;17.03;14.03;;;;;;;1.94;100.00;97792.53;5030093;28;105837;-60
2022/01/24 12:39:50;;;;;;;19.17;15.27;;;;;;;2.03;100.00;97796.00;5033922;28;101839;-59
2022/01/24 12:48:31;;;;;;;20.00;14.17;;;;;;;2.05;100.00;97794.84;5011911;28;103074;-59